Estación Meteorológica Peña el Pijo (Robertgarden) [ 07/23/19 00:26:24 CEST ]

Fecha Hora Presion(HPa) Temp (°C) Humedad % Rocio (°C) Viento ( m/s) Direccion Lluvia 1Hora(mm) Lluvia 24H(mm) LLuvia Total(mm)
2019-Jun-04 01:01:42 1009.500 15.8 58 7.3         318.05
2019-Jun-04 02:01:39 1009.000 15.0 63 8.0         318.05
2019-Jun-04 03:03:09 1008.400 15.2 66 8.9         318.05
2019-Jun-04 04:01:31 1007.700 15.4 59 7.4         318.05
2019-Jun-04 05:01:18 1007.600 15.4 53 5.8         318.05
2019-Jun-04 06:01:27 1007.100 15.8 52 5.9         318.05
2019-Jun-04 07:01:17 1007.100 16.3 50 6.0         318.05
2019-Jun-04 08:01:42 1007.200 16.5 51 6.3         318.05
2019-Jun-04 09:01:43 1007.000 21.6 44 8.8         318.05
2019-Jun-04 10:01:43 1007.000 25.9 32 7.9         318.05
2019-Jun-04 11:01:36 1006.600 29.6 25 7.3 0.4 N     318.05
2019-Jun-04 12:01:55 1006.400 31.6 22 7.2         318.05
2019-Jun-04 13:01:48 1005.800 33.5 20 7.5         318.05
2019-Jun-04 14:01:47 1005.300 31.3 18 3.8         318.05
2019-Jun-04 15:02:07 1005.000 31.7 18 4.1         318.05
2019-Jun-04 16:01:56 1004.600 32.9 15 2.2 0.7 E     318.05
2019-Jun-04 17:02:03 1003.900 31.9 16 2.3 1.6 WNW     318.05
2019-Jun-04 18:01:49 1003.700 31.3 19 4.8 0.6 N     318.05
2019-Jun-04 19:01:50 1003.400 29.5 20 4.2         318.05
2019-Jun-04 20:01:39 1003.300 27.2 23 4.1         318.05
2019-Jun-04 21:01:40 1003.400 24.3 28 4.5         318.05
2019-Jun-04 22:01:47 1003.500 21.1 37 5.7         318.05
2019-Jun-04 23:01:40 1003.900 18.1 48 6.8         318.05

Temperatura Máxima:33°    Temperatura Mínima:15°
Presión Máxima:1009.500 Hpa    Presión Mínima:1003.300 Hpa


Volver